sensor_id;sensor_type;location;lat;lon;timestamp;P1;durP1;ratioP1;P2;durP2;ratioP2
41709;SDS011;59402;48.396;-4.472;2023-04-03T00:01:14;13.13;;;6.80;;
41709;SDS011;59402;48.396;-4.472;2023-04-03T00:03:41;9.80;;;6.28;;
41709;SDS011;59402;48.396;-4.472;2023-04-03T00:06:07;12.98;;;6.90;;
41709;SDS011;59402;48.396;-4.472;2023-04-03T00:08:35;15.57;;;7.07;;
41709;SDS011;59402;48.396;-4.472;2023-04-03T00:11:02;8.82;;;6.30;;
41709;SDS011;59402;48.396;-4.472;2023-04-03T00:13:28;8.77;;;6.57;;
41709;SDS011;59402;48.396;-4.472;2023-04-03T00:15:55;9.75;;;6.32;;
41709;SDS011;59402;48.396;-4.472;2023-04-03T00:18:21;11.45;;;6.75;;
41709;SDS011;59402;48.396;-4.472;2023-04-03T00:20:47;7.80;;;5.97;;
41709;SDS011;59402;48.396;-4.472;2023-04-03T00:23:13;8.93;;;6.18;;
41709;SDS011;59402;48.396;-4.472;2023-04-03T00:25:40;14.48;;;6.82;;
41709;SDS011;59402;48.396;-4.472;2023-04-03T00:28:05;8.13;;;5.40;;
41709;SDS011;59402;48.396;-4.472;2023-04-03T00:30:32;10.05;;;4.80;;
41709;SDS011;59402;48.396;-4.472;2023-04-03T00:32:58;8.93;;;4.65;;
41709;SDS011;59402;48.396;-4.472;2023-04-03T00:35:25;8.20;;;4.35;;
41709;SDS011;59402;48.396;-4.472;2023-04-03T00:37:52;6.55;;;4.00;;
41709;SDS011;59402;48.396;-4.472;2023-04-03T00:40:19;7.45;;;3.10;;
41709;SDS011;59402;48.396;-4.472;2023-04-03T00:42:46;6.90;;;3.10;;
41709;SDS011;59402;48.396;-4.472;2023-04-03T00:47:44;6.80;;;3.05;;
41709;SDS011;59402;48.396;-4.472;2023-04-03T00:50:10;7.20;;;2.97;;
41709;SDS011;59402;48.396;-4.472;2023-04-03T00:52:36;5.45;;;3.15;;
41709;SDS011;59402;48.396;-4.472;2023-04-03T00:55:03;5.60;;;2.75;;
41709;SDS011;59402;48.396;-4.472;2023-04-03T00:57:31;5.55;;;3.40;;
41709;SDS011;59402;48.396;-4.472;2023-04-03T00:59:59;6.90;;;3.25;;
41709;SDS011;59402;48.396;-4.472;2023-04-03T01:02:29;5.80;;;3.35;;
41709;SDS011;59402;48.396;-4.472;2023-04-03T01:04:54;6.50;;;2.90;;
41709;SDS011;59402;48.396;-4.472;2023-04-03T01:07:21;6.32;;;3.20;;
41709;SDS011;59402;48.396;-4.472;2023-04-03T01:09:50;5.57;;;3.22;;
41709;SDS011;59402;48.396;-4.472;2023-04-03T01:12:19;7.32;;;3.42;;
41709;SDS011;59402;48.396;-4.472;2023-04-03T01:14:48;5.47;;;3.10;;
41709;SDS011;59402;48.396;-4.472;2023-04-03T01:20:24;6.78;;;3.25;;
41709;SDS011;59402;48.396;-4.472;2023-04-03T01:25:32;7.28;;;3.50;;
41709;SDS011;59402;48.396;-4.472;2023-04-03T01:27:58;6.20;;;3.75;;
41709;SDS011;59402;48.396;-4.472;2023-04-03T01:30:26;6.15;;;3.38;;
41709;SDS011;59402;48.396;-4.472;2023-04-03T01:32:57;6.38;;;4.00;;
41709;SDS011;59402;48.396;-4.472;2023-04-03T01:35:23;8.68;;;4.30;;
41709;SDS011;59402;48.396;-4.472;2023-04-03T01:37:50;6.25;;;3.75;;
41709;SDS011;59402;48.396;-4.472;2023-04-03T01:40:16;7.15;;;3.92;;
41709;SDS011;59402;48.396;-4.472;2023-04-03T01:45:10;7.35;;;4.25;;
41709;SDS011;59402;48.396;-4.472;2023-04-03T01:47:36;8.98;;;4.00;;
41709;SDS011;59402;48.396;-4.472;2023-04-03T01:50:02;9.32;;;4.15;;
41709;SDS011;59402;48.396;-4.472;2023-04-03T01:52:31;6.38;;;4.00;;
41709;SDS011;59402;48.396;-4.472;2023-04-03T01:54:56;7.47;;;3.83;;
41709;SDS011;59402;48.396;-4.472;2023-04-03T01:57:22;6.68;;;4.15;;
41709;SDS011;59402;48.396;-4.472;2023-04-03T01:59:48;7.72;;;4.20;;
41709;SDS011;59402;48.396;-4.472;2023-04-03T02:02:14;6.15;;;3.80;;
41709;SDS011;59402;48.396;-4.472;2023-04-03T02:04:40;7.25;;;4.00;;
41709;SDS011;59402;48.396;-4.472;2023-04-03T02:07:06;7.60;;;4.72;;
41709;SDS011;59402;48.396;-4.472;2023-04-03T02:09:32;8.30;;;4.35;;
41709;SDS011;59402;48.396;-4.472;2023-04-03T02:11:58;7.90;;;3.72;;
41709;SDS011;59402;48.396;-4.472;2023-04-03T02:14:23;11.57;;;4.75;;
41709;SDS011;59402;48.396;-4.472;2023-04-03T02:16:49;8.75;;;4.72;;
41709;SDS011;59402;48.396;-4.472;2023-04-03T02:19:15;9.05;;;4.05;;
41709;SDS011;59402;48.396;-4.472;2023-04-03T02:21:41;12.57;;;4.50;;
41709;SDS011;59402;48.396;-4.472;2023-04-03T02:24:07;9.85;;;4.40;;
41709;SDS011;59402;48.396;-4.472;2023-04-03T02:26:33;7.28;;;4.45;;
41709;SDS011;59402;48.396;-4.472;2023-04-03T02:28:59;8.55;;;4.50;;
41709;SDS011;59402;48.396;-4.472;2023-04-03T02:31:24;9.95;;;5.20;;
41709;SDS011;59402;48.396;-4.472;2023-04-03T02:33:51;8.77;;;4.20;;
41709;SDS011;59402;48.396;-4.472;2023-04-03T02:36:17;10.20;;;4.68;;
41709;SDS011;59402;48.396;-4.472;2023-04-03T02:38:49;8.77;;;4.05;;
41709;SDS011;59402;48.396;-4.472;2023-04-03T02:41:14;7.50;;;3.95;;
41709;SDS011;59402;48.396;-4.472;2023-04-03T02:43:41;6.10;;;3.40;;
41709;SDS011;59402;48.396;-4.472;2023-04-03T02:46:07;5.38;;;3.28;;
41709;SDS011;59402;48.396;-4.472;2023-04-03T02:48:33;10.77;;;3.58;;
41709;SDS011;59402;48.396;-4.472;2023-04-03T02:50:59;7.50;;;3.15;;
41709;SDS011;59402;48.396;-4.472;2023-04-03T02:53:26;9.43;;;3.93;;
41709;SDS011;59402;48.396;-4.472;2023-04-03T02:55:52;10.88;;;3.22;;
41709;SDS011;59402;48.396;-4.472;2023-04-03T02:58:17;8.32;;;3.30;;
41709;SDS011;59402;48.396;-4.472;2023-04-03T03:00:43;12.15;;;3.53;;
41709;SDS011;59402;48.396;-4.472;2023-04-03T03:03:09;5.55;;;2.95;;
41709;SDS011;59402;48.396;-4.472;2023-04-03T03:05:35;9.27;;;3.70;;
41709;SDS011;59402;48.396;-4.472;2023-04-03T03:08:01;9.98;;;2.70;;
41709;SDS011;59402;48.396;-4.472;2023-04-03T03:10:27;8.52;;;2.80;;
41709;SDS011;59402;48.396;-4.472;2023-04-03T03:12:52;7.88;;;2.92;;
41709;SDS011;59402;48.396;-4.472;2023-04-03T03:15:18;6.22;;;2.67;;
41709;SDS011;59402;48.396;-4.472;2023-04-03T03:17:44;7.30;;;2.90;;
41709;SDS011;59402;48.396;-4.472;2023-04-03T03:20:10;7.05;;;2.50;;
41709;SDS011;59402;48.396;-4.472;2023-04-03T03:22:37;8.98;;;3.30;;
41709;SDS011;59402;48.396;-4.472;2023-04-03T03:25:03;8.88;;;2.65;;
41709;SDS011;59402;48.396;-4.472;2023-04-03T03:27:29;8.32;;;3.00;;
41709;SDS011;59402;48.396;-4.472;2023-04-03T03:29:55;7.13;;;3.50;;
41709;SDS011;59402;48.396;-4.472;2023-04-03T03:32:21;9.23;;;2.97;;
41709;SDS011;59402;48.396;-4.472;2023-04-03T03:34:47;8.98;;;2.90;;
41709;SDS011;59402;48.396;-4.472;2023-04-03T03:37:13;8.40;;;3.10;;
41709;SDS011;59402;48.396;-4.472;2023-04-03T03:39:38;10.95;;;2.83;;
41709;SDS011;59402;48.396;-4.472;2023-04-03T03:42:04;12.77;;;3.17;;
41709;SDS011;59402;48.396;-4.472;2023-04-03T03:44:30;9.07;;;2.95;;
41709;SDS011;59402;48.396;-4.472;2023-04-03T03:46:56;10.02;;;2.70;;
41709;SDS011;59402;48.396;-4.472;2023-04-03T03:49:22;5.22;;;2.30;;
41709;SDS011;59402;48.396;-4.472;2023-04-03T03:51:48;7.88;;;2.47;;
41709;SDS011;59402;48.396;-4.472;2023-04-03T03:54:15;6.43;;;2.47;;
41709;SDS011;59402;48.396;-4.472;2023-04-03T03:56:41;10.27;;;2.85;;
41709;SDS011;59402;48.396;-4.472;2023-04-03T03:59:07;8.70;;;2.38;;
41709;SDS011;59402;48.396;-4.472;2023-04-03T04:01:33;6.95;;;2.33;;
41709;SDS011;59402;48.396;-4.472;2023-04-03T04:03:59;6.95;;;2.25;;
41709;SDS011;59402;48.396;-4.472;2023-04-03T04:06:29;7.07;;;2.25;;
41709;SDS011;59402;48.396;-4.472;2023-04-03T04:08:58;4.85;;;2.30;;
41709;SDS011;59402;48.396;-4.472;2023-04-03T04:11:24;6.45;;;2.10;;
41709;SDS011;59402;48.396;-4.472;2023-04-03T04:13:52;6.82;;;2.45;;
41709;SDS011;59402;48.396;-4.472;2023-04-03T04:16:20;8.00;;;2.30;;
41709;SDS011;59402;48.396;-4.472;2023-04-03T04:18:46;5.47;;;2.10;;
41709;SDS011;59402;48.396;-4.472;2023-04-03T04:21:12;7.95;;;2.08;;
41709;SDS011;59402;48.396;-4.472;2023-04-03T04:23:39;5.97;;;2.20;;
41709;SDS011;59402;48.396;-4.472;2023-04-03T04:26:04;5.78;;;1.95;;
41709;SDS011;59402;48.396;-4.472;2023-04-03T04:28:34;7.18;;;1.98;;
41709;SDS011;59402;48.396;-4.472;2023-04-03T04:31:01;6.93;;;2.00;;
41709;SDS011;59402;48.396;-4.472;2023-04-03T04:33:28;8.50;;;2.38;;
41709;SDS011;59402;48.396;-4.472;2023-04-03T04:35:56;6.55;;;1.95;;
41709;SDS011;59402;48.396;-4.472;2023-04-03T04:38:22;7.82;;;2.10;;
41709;SDS011;59402;48.396;-4.472;2023-04-03T04:40:50;5.60;;;2.17;;
41709;SDS011;59402;48.396;-4.472;2023-04-03T04:43:16;8.88;;;2.45;;
41709;SDS011;59402;48.396;-4.472;2023-04-03T04:45:44;7.05;;;2.10;;
41709;SDS011;59402;48.396;-4.472;2023-04-03T04:48:10;10.85;;;2.90;;
41709;SDS011;59402;48.396;-4.472;2023-04-03T04:50:36;6.30;;;2.50;;
41709;SDS011;59402;48.396;-4.472;2023-04-03T04:53:02;9.80;;;2.72;;
41709;SDS011;59402;48.396;-4.472;2023-04-03T04:55:29;11.00;;;3.10;;
41709;SDS011;59402;48.396;-4.472;2023-04-03T04:57:55;7.68;;;2.55;;
41709;SDS011;59402;48.396;-4.472;2023-04-03T05:00:21;4.93;;;2.75;;
41709;SDS011;59402;48.396;-4.472;2023-04-03T05:02:47;8.93;;;2.97;;
41709;SDS011;59402;48.396;-4.472;2023-04-03T05:05:13;13.25;;;2.85;;
41709;SDS011;59402;48.396;-4.472;2023-04-03T05:07:39;10.60;;;2.97;;
41709;SDS011;59402;48.396;-4.472;2023-04-03T05:10:06;7.50;;;2.42;;
41709;SDS011;59402;48.396;-4.472;2023-04-03T05:12:33;10.35;;;2.58;;
41709;SDS011;59402;48.396;-4.472;2023-04-03T05:15:01;8.43;;;2.45;;
41709;SDS011;59402;48.396;-4.472;2023-04-03T05:19:56;7.13;;;2.38;;
41709;SDS011;59402;48.396;-4.472;2023-04-03T05:22:23;8.02;;;2.22;;
41709;SDS011;59402;48.396;-4.472;2023-04-03T05:24:51;8.65;;;2.75;;
41709;SDS011;59402;48.396;-4.472;2023-04-03T05:27:18;12.10;;;3.10;;
41709;SDS011;59402;48.396;-4.472;2023-04-03T05:29:50;10.00;;;3.17;;
41709;SDS011;59402;48.396;-4.472;2023-04-03T05:32:19;6.18;;;2.70;;
41709;SDS011;59402;48.396;-4.472;2023-04-03T05:34:49;5.85;;;2.60;;
41709;SDS011;59402;48.396;-4.472;2023-04-03T05:37:18;9.25;;;3.30;;
41709;SDS011;59402;48.396;-4.472;2023-04-03T05:39:45;12.00;;;3.03;;
41709;SDS011;59402;48.396;-4.472;2023-04-03T05:42:11;8.68;;;3.10;;
41709;SDS011;59402;48.396;-4.472;2023-04-03T05:44:38;9.52;;;2.97;;
41709;SDS011;59402;48.396;-4.472;2023-04-03T05:47:04;11.57;;;3.53;;
41709;SDS011;59402;48.396;-4.472;2023-04-03T05:49:30;9.25;;;2.90;;
41709;SDS011;59402;48.396;-4.472;2023-04-03T05:51:56;9.00;;;3.03;;
41709;SDS011;59402;48.396;-4.472;2023-04-03T05:54:25;10.48;;;3.13;;
41709;SDS011;59402;48.396;-4.472;2023-04-03T05:56:58;10.48;;;3.00;;
41709;SDS011;59402;48.396;-4.472;2023-04-03T05:59:25;11.00;;;3.17;;
41709;SDS011;59402;48.396;-4.472;2023-04-03T06:01:53;11.30;;;3.22;;
41709;SDS011;59402;48.396;-4.472;2023-04-03T06:04:20;8.23;;;3.20;;
41709;SDS011;59402;48.396;-4.472;2023-04-03T06:06:52;11.25;;;3.05;;
41709;SDS011;59402;48.396;-4.472;2023-04-03T06:12:46;9.27;;;3.38;;
41709;SDS011;59402;48.396;-4.472;2023-04-03T06:15:11;9.32;;;3.20;;
41709;SDS011;59402;48.396;-4.472;2023-04-03T06:17:39;9.18;;;3.60;;
41709;SDS011;59402;48.396;-4.472;2023-04-03T06:20:05;9.40;;;3.70;;
41709;SDS011;59402;48.396;-4.472;2023-04-03T06:22:31;8.98;;;3.42;;
41709;SDS011;59402;48.396;-4.472;2023-04-03T06:24:57;10.77;;;3.95;;
41709;SDS011;59402;48.396;-4.472;2023-04-03T06:27:23;11.68;;;4.57;;
41709;SDS011;59402;48.396;-4.472;2023-04-03T06:29:49;9.68;;;4.57;;
41709;SDS011;59402;48.396;-4.472;2023-04-03T06:32:15;10.57;;;4.47;;
41709;SDS011;59402;48.396;-4.472;2023-04-03T06:34:41;13.98;;;4.75;;
41709;SDS011;59402;48.396;-4.472;2023-04-03T06:37:20;13.57;;;4.75;;
41709;SDS011;59402;48.396;-4.472;2023-04-03T06:39:48;8.27;;;4.45;;
41709;SDS011;59402;48.396;-4.472;2023-04-03T06:42:14;12.07;;;4.40;;
41709;SDS011;59402;48.396;-4.472;2023-04-03T06:44:51;10.98;;;4.28;;
41709;SDS011;59402;48.396;-4.472;2023-04-03T06:47:16;12.07;;;4.43;;
41709;SDS011;59402;48.396;-4.472;2023-04-03T06:49:42;10.52;;;3.95;;
41709;SDS011;59402;48.396;-4.472;2023-04-03T06:52:08;8.23;;;3.17;;
41709;SDS011;59402;48.396;-4.472;2023-04-03T06:54:35;9.60;;;3.75;;
41709;SDS011;59402;48.396;-4.472;2023-04-03T06:57:01;7.00;;;3.00;;
41709;SDS011;59402;48.396;-4.472;2023-04-03T06:59:27;15.65;;;3.88;;
41709;SDS011;59402;48.396;-4.472;2023-04-03T07:01:53;9.23;;;3.47;;
41709;SDS011;59402;48.396;-4.472;2023-04-03T07:04:19;9.23;;;3.70;;
41709;SDS011;59402;48.396;-4.472;2023-04-03T07:06:47;8.30;;;3.42;;
41709;SDS011;59402;48.396;-4.472;2023-04-03T07:09:14;7.85;;;3.22;;
41709;SDS011;59402;48.396;-4.472;2023-04-03T07:11:40;10.73;;;3.47;;
41709;SDS011;59402;48.396;-4.472;2023-04-03T07:14:05;13.05;;;3.22;;
41709;SDS011;59402;48.396;-4.472;2023-04-03T07:16:33;8.80;;;2.77;;
41709;SDS011;59402;48.396;-4.472;2023-04-03T07:18:59;9.23;;;2.58;;
41709;SDS011;59402;48.396;-4.472;2023-04-03T07:21:26;10.63;;;2.83;;
41709;SDS011;59402;48.396;-4.472;2023-04-03T07:23:53;10.65;;;3.00;;
41709;SDS011;59402;48.396;-4.472;2023-04-03T07:26:19;11.00;;;2.47;;
41709;SDS011;59402;48.396;-4.472;2023-04-03T07:28:46;7.35;;;2.63;;
41709;SDS011;59402;48.396;-4.472;2023-04-03T07:33:40;9.93;;;2.60;;
41709;SDS011;59402;48.396;-4.472;2023-04-03T07:36:07;9.52;;;2.83;;
41709;SDS011;59402;48.396;-4.472;2023-04-03T07:38:34;10.13;;;2.75;;
41709;SDS011;59402;48.396;-4.472;2023-04-03T07:41:01;5.82;;;2.50;;
41709;SDS011;59402;48.396;-4.472;2023-04-03T07:43:27;8.07;;;2.38;;
41709;SDS011;59402;48.396;-4.472;2023-04-03T07:45:53;14.27;;;2.90;;
41709;SDS011;59402;48.396;-4.472;2023-04-03T07:48:23;11.45;;;2.75;;
41709;SDS011;59402;48.396;-4.472;2023-04-03T07:50:50;10.60;;;2.55;;
41709;SDS011;59402;48.396;-4.472;2023-04-03T07:53:16;10.25;;;2.60;;
41709;SDS011;59402;48.396;-4.472;2023-04-03T07:55:42;7.07;;;2.70;;
41709;SDS011;59402;48.396;-4.472;2023-04-03T07:58:12;13.77;;;3.03;;
41709;SDS011;59402;48.396;-4.472;2023-04-03T08:00:39;10.57;;;2.78;;
41709;SDS011;59402;48.396;-4.472;2023-04-03T08:03:06;13.55;;;2.40;;
41709;SDS011;59402;48.396;-4.472;2023-04-03T08:05:35;12.43;;;2.78;;
41709;SDS011;59402;48.396;-4.472;2023-04-03T08:08:12;8.57;;;2.80;;
41709;SDS011;59402;48.396;-4.472;2023-04-03T08:10:39;10.23;;;2.58;;
41709;SDS011;59402;48.396;-4.472;2023-04-03T08:13:05;12.35;;;3.03;;
41709;SDS011;59402;48.396;-4.472;2023-04-03T08:15:31;10.18;;;3.03;;
41709;SDS011;59402;48.396;-4.472;2023-04-03T08:17:57;9.25;;;2.42;;
41709;SDS011;59402;48.396;-4.472;2023-04-03T08:20:23;13.23;;;3.00;;
41709;SDS011;59402;48.396;-4.472;2023-04-03T08:22:50;16.17;;;3.42;;
41709;SDS011;59402;48.396;-4.472;2023-04-03T08:25:15;15.68;;;2.70;;
41709;SDS011;59402;48.396;-4.472;2023-04-03T08:27:42;9.48;;;2.42;;
41709;SDS011;59402;48.396;-4.472;2023-04-03T08:30:08;9.57;;;2.25;;
41709;SDS011;59402;48.396;-4.472;2023-04-03T08:32:35;10.43;;;2.40;;
41709;SDS011;59402;48.396;-4.472;2023-04-03T08:35:01;9.43;;;2.53;;
41709;SDS011;59402;48.396;-4.472;2023-04-03T08:37:27;16.50;;;2.65;;
41709;SDS011;59402;48.396;-4.472;2023-04-03T08:39:53;13.75;;;2.80;;
41709;SDS011;59402;48.396;-4.472;2023-04-03T08:45:01;14.32;;;3.17;;
41709;SDS011;59402;48.396;-4.472;2023-04-03T08:50:05;11.27;;;2.50;;
41709;SDS011;59402;48.396;-4.472;2023-04-03T08:52:44;17.42;;;3.33;;
41709;SDS011;59402;48.396;-4.472;2023-04-03T08:55:16;10.23;;;2.38;;
41709;SDS011;59402;48.396;-4.472;2023-04-03T08:57:53;13.48;;;2.90;;
41709;SDS011;59402;48.396;-4.472;2023-04-03T09:00:25;17.13;;;2.78;;
41709;SDS011;59402;48.396;-4.472;2023-04-03T09:02:54;15.73;;;3.35;;
41709;SDS011;59402;48.396;-4.472;2023-04-03T09:10:49;15.35;;;2.85;;
41709;SDS011;59402;48.396;-4.472;2023-04-03T09:15:52;13.30;;;3.00;;
41709;SDS011;59402;48.396;-4.472;2023-04-03T09:21:31;14.18;;;2.67;;
41709;SDS011;59402;48.396;-4.472;2023-04-03T09:23:39;10.57;;;2.17;;
41709;SDS011;59402;48.396;-4.472;2023-04-03T09:26:25;15.35;;;3.05;;
41709;SDS011;59402;48.396;-4.472;2023-04-03T09:28:58;12.88;;;2.63;;
41709;SDS011;59402;48.396;-4.472;2023-04-03T09:31:29;8.65;;;2.10;;
41709;SDS011;59402;48.396;-4.472;2023-04-03T09:34:02;11.95;;;2.58;;
41709;SDS011;59402;48.396;-4.472;2023-04-03T09:39:13;15.02;;;3.08;;
41709;SDS011;59402;48.396;-4.472;2023-04-03T09:41:40;11.38;;;2.75;;
41709;SDS011;59402;48.396;-4.472;2023-04-03T09:44:18;12.18;;;2.50;;
41709;SDS011;59402;48.396;-4.472;2023-04-03T09:46:50;10.80;;;2.53;;
41709;SDS011;59402;48.396;-4.472;2023-04-03T09:49:16;9.23;;;2.70;;
41709;SDS011;59402;48.396;-4.472;2023-04-03T09:51:43;11.95;;;3.15;;
41709;SDS011;59402;48.396;-4.472;2023-04-03T09:56:57;14.75;;;3.53;;
41709;SDS011;59402;48.396;-4.472;2023-04-03T09:59:31;13.02;;;2.60;;
41709;SDS011;59402;48.396;-4.472;2023-04-03T10:05:03;11.65;;;2.42;;
41709;SDS011;59402;48.396;-4.472;2023-04-03T10:07:33;13.40;;;2.92;;
41709;SDS011;59402;48.396;-4.472;2023-04-03T10:10:23;12.85;;;2.58;;
41709;SDS011;59402;48.396;-4.472;2023-04-03T10:13:03;11.48;;;2.35;;
41709;SDS011;59402;48.396;-4.472;2023-04-03T10:15:32;11.27;;;2.30;;
41709;SDS011;59402;48.396;-4.472;2023-04-03T10:18:02;9.32;;;2.30;;
41709;SDS011;59402;48.396;-4.472;2023-04-03T10:20:44;9.15;;;2.17;;
41709;SDS011;59402;48.396;-4.472;2023-04-03T10:23:21;13.50;;;2.70;;
41709;SDS011;59402;48.396;-4.472;2023-04-03T10:38:55;9.00;;;2.13;;
41709;SDS011;59402;48.396;-4.472;2023-04-03T10:50:29;11.05;;;2.58;;
41709;SDS011;59402;48.396;-4.472;2023-04-03T10:59:01;12.73;;;2.25;;
41709;SDS011;59402;48.396;-4.472;2023-04-03T11:01:38;11.85;;;2.80;;
41709;SDS011;59402;48.396;-4.472;2023-04-03T11:04:06;9.00;;;1.90;;
41709;SDS011;59402;48.396;-4.472;2023-04-03T11:06:35;6.97;;;1.98;;
41709;SDS011;59402;48.396;-4.472;2023-04-03T11:12:29;9.40;;;1.90;;
41709;SDS011;59402;48.396;-4.472;2023-04-03T11:15:03;7.80;;;1.95;;
41709;SDS011;59402;48.396;-4.472;2023-04-03T11:17:35;10.93;;;2.28;;
41709;SDS011;59402;48.396;-4.472;2023-04-03T11:20:19;14.13;;;2.45;;
41709;SDS011;59402;48.396;-4.472;2023-04-03T11:25:32;13.23;;;2.30;;
41709;SDS011;59402;48.396;-4.472;2023-04-03T11:28:02;9.80;;;2.05;;
41709;SDS011;59402;48.396;-4.472;2023-04-03T11:36:05;7.90;;;1.80;;
41709;SDS011;59402;48.396;-4.472;2023-04-03T11:38:38;14.88;;;3.05;;
41709;SDS011;59402;48.396;-4.472;2023-04-03T11:41:08;10.50;;;2.20;;
41709;SDS011;59402;48.396;-4.472;2023-04-03T11:43:39;11.10;;;2.60;;
41709;SDS011;59402;48.396;-4.472;2023-04-03T11:46:07;8.85;;;2.50;;
41709;SDS011;59402;48.396;-4.472;2023-04-03T11:51:00;9.68;;;2.03;;
41709;SDS011;59402;48.396;-4.472;2023-04-03T11:55:54;8.07;;;1.80;;
41709;SDS011;59402;48.396;-4.472;2023-04-03T11:58:22;11.55;;;2.08;;
41709;SDS011;59402;48.396;-4.472;2023-04-03T12:00:53;10.48;;;2.15;;
41709;SDS011;59402;48.396;-4.472;2023-04-03T12:16:02;10.20;;;2.05;;
41709;SDS011;59402;48.396;-4.472;2023-04-03T12:21:09;8.13;;;1.75;;
41709;SDS011;59402;48.396;-4.472;2023-04-03T12:23:58;7.35;;;2.05;;
41709;SDS011;59402;48.396;-4.472;2023-04-03T12:26:22;12.18;;;2.95;;
41709;SDS011;59402;48.396;-4.472;2023-04-03T12:28:57;10.10;;;2.88;;
41709;SDS011;59402;48.396;-4.472;2023-04-03T12:31:25;12.50;;;2.95;;
41709;SDS011;59402;48.396;-4.472;2023-04-03T12:36:42;16.13;;;3.25;;
41709;SDS011;59402;48.396;-4.472;2023-04-03T12:39:43;14.20;;;2.63;;
41709;SDS011;59402;48.396;-4.472;2023-04-03T12:47:54;14.52;;;3.22;;
41709;SDS011;59402;48.396;-4.472;2023-04-03T12:50:22;12.27;;;2.70;;
41709;SDS011;59402;48.396;-4.472;2023-04-03T12:53:04;11.80;;;2.50;;
41709;SDS011;59402;48.396;-4.472;2023-04-03T12:55:31;11.73;;;2.28;;
41709;SDS011;59402;48.396;-4.472;2023-04-03T12:58:12;12.07;;;2.20;;
41709;SDS011;59402;48.396;-4.472;2023-04-03T13:00:40;10.27;;;2.45;;
41709;SDS011;59402;48.396;-4.472;2023-04-03T13:03:06;9.93;;;2.60;;
41709;SDS011;59402;48.396;-4.472;2023-04-03T13:05:46;12.63;;;2.33;;
41709;SDS011;59402;48.396;-4.472;2023-04-03T13:08:12;12.70;;;3.05;;
41709;SDS011;59402;48.396;-4.472;2023-04-03T13:13:21;8.82;;;2.45;;
41709;SDS011;59402;48.396;-4.472;2023-04-03T13:15:48;12.20;;;2.58;;
41709;SDS011;59402;48.396;-4.472;2023-04-03T13:18:32;8.52;;;2.28;;
41709;SDS011;59402;48.396;-4.472;2023-04-03T13:21:06;9.00;;;2.00;;
41709;SDS011;59402;48.396;-4.472;2023-04-03T13:23:36;10.73;;;1.92;;
41709;SDS011;59402;48.396;-4.472;2023-04-03T13:26:04;8.15;;;2.17;;
41709;SDS011;59402;48.396;-4.472;2023-04-03T13:28:31;8.13;;;1.63;;
41709;SDS011;59402;48.396;-4.472;2023-04-03T13:34:02;8.20;;;2.08;;
41709;SDS011;59402;48.396;-4.472;2023-04-03T13:36:36;11.65;;;1.90;;
41709;SDS011;59402;48.396;-4.472;2023-04-03T13:39:39;10.77;;;2.10;;
41709;SDS011;59402;48.396;-4.472;2023-04-03T13:42:00;8.35;;;2.20;;
41709;SDS011;59402;48.396;-4.472;2023-04-03T13:44:40;7.93;;;2.00;;
41709;SDS011;59402;48.396;-4.472;2023-04-03T13:49:43;8.38;;;1.58;;
41709;SDS011;59402;48.396;-4.472;2023-04-03T14:05:55;9.07;;;2.10;;
41709;SDS011;59402;48.396;-4.472;2023-04-03T14:08:21;8.88;;;1.92;;
41709;SDS011;59402;48.396;-4.472;2023-04-03T14:10:47;7.93;;;1.80;;
41709;SDS011;59402;48.396;-4.472;2023-04-03T14:13:15;7.80;;;1.80;;
41709;SDS011;59402;48.396;-4.472;2023-04-03T14:15:42;7.95;;;2.13;;
41709;SDS011;59402;48.396;-4.472;2023-04-03T14:18:12;13.15;;;2.20;;
41709;SDS011;59402;48.396;-4.472;2023-04-03T14:20:40;8.40;;;1.73;;
41709;SDS011;59402;48.396;-4.472;2023-04-03T14:23:07;9.18;;;1.98;;
41709;SDS011;59402;48.396;-4.472;2023-04-03T14:25:33;8.82;;;1.67;;
41709;SDS011;59402;48.396;-4.472;2023-04-03T14:27:59;12.38;;;2.45;;
41709;SDS011;59402;48.396;-4.472;2023-04-03T14:30:27;6.05;;;1.55;;
41709;SDS011;59402;48.396;-4.472;2023-04-03T14:32:58;7.00;;;1.67;;
41709;SDS011;59402;48.396;-4.472;2023-04-03T14:35:24;7.47;;;1.95;;
41709;SDS011;59402;48.396;-4.472;2023-04-03T14:37:51;8.53;;;1.70;;
41709;SDS011;59402;48.396;-4.472;2023-04-03T14:40:18;8.75;;;1.65;;
41709;SDS011;59402;48.396;-4.472;2023-04-03T14:42:49;9.10;;;1.90;;
41709;SDS011;59402;48.396;-4.472;2023-04-03T14:45:16;9.02;;;2.25;;
41709;SDS011;59402;48.396;-4.472;2023-04-03T14:47:47;6.72;;;1.55;;
41709;SDS011;59402;48.396;-4.472;2023-04-03T14:50:17;8.93;;;1.67;;
41709;SDS011;59402;48.396;-4.472;2023-04-03T14:52:46;8.27;;;1.90;;
41709;SDS011;59402;48.396;-4.472;2023-04-03T14:55:13;7.65;;;1.60;;
41709;SDS011;59402;48.396;-4.472;2023-04-03T14:57:40;8.05;;;1.80;;
41709;SDS011;59402;48.396;-4.472;2023-04-03T15:00:07;9.13;;;1.95;;
41709;SDS011;59402;48.396;-4.472;2023-04-03T15:02:37;7.47;;;1.80;;
41709;SDS011;59402;48.396;-4.472;2023-04-03T15:05:05;7.68;;;1.80;;
41709;SDS011;59402;48.396;-4.472;2023-04-03T15:07:33;9.32;;;1.98;;
41709;SDS011;59402;48.396;-4.472;2023-04-03T15:12:50;7.85;;;1.58;;
41709;SDS011;59402;48.396;-4.472;2023-04-03T15:15:17;7.80;;;2.22;;
41709;SDS011;59402;48.396;-4.472;2023-04-03T15:17:45;5.82;;;1.70;;
41709;SDS011;59402;48.396;-4.472;2023-04-03T15:20:14;8.85;;;2.08;;
41709;SDS011;59402;48.396;-4.472;2023-04-03T15:22:41;9.82;;;1.77;;
41709;SDS011;59402;48.396;-4.472;2023-04-03T15:25:07;7.95;;;1.88;;
41709;SDS011;59402;48.396;-4.472;2023-04-03T15:27:34;6.43;;;1.45;;
41709;SDS011;59402;48.396;-4.472;2023-04-03T15:30:00;7.75;;;1.58;;
41709;SDS011;59402;48.396;-4.472;2023-04-03T15:32:26;6.38;;;1.73;;
41709;SDS011;59402;48.396;-4.472;2023-04-03T15:34:52;8.83;;;2.03;;
41709;SDS011;59402;48.396;-4.472;2023-04-03T15:39:44;9.63;;;2.00;;
41709;SDS011;59402;48.396;-4.472;2023-04-03T15:42:10;10.48;;;2.28;;
41709;SDS011;59402;48.396;-4.472;2023-04-03T15:44:37;10.15;;;2.60;;
41709;SDS011;59402;48.396;-4.472;2023-04-03T15:47:03;8.30;;;2.10;;
41709;SDS011;59402;48.396;-4.472;2023-04-03T15:49:29;8.55;;;2.13;;
41709;SDS011;59402;48.396;-4.472;2023-04-03T15:51:56;7.97;;;1.80;;
41709;SDS011;59402;48.396;-4.472;2023-04-03T15:54:21;11.40;;;2.10;;
41709;SDS011;59402;48.396;-4.472;2023-04-03T15:56:49;9.75;;;2.63;;
41709;SDS011;59402;48.396;-4.472;2023-04-03T15:59:14;9.45;;;2.15;;
41709;SDS011;59402;48.396;-4.472;2023-04-03T16:01:40;7.63;;;2.08;;
41709;SDS011;59402;48.396;-4.472;2023-04-03T16:04:07;7.85;;;2.20;;
41709;SDS011;59402;48.396;-4.472;2023-04-03T16:06:33;12.40;;;2.28;;
41709;SDS011;59402;48.396;-4.472;2023-04-03T16:08:59;10.10;;;2.42;;
41709;SDS011;59402;48.396;-4.472;2023-04-03T16:11:26;9.15;;;2.78;;
41709;SDS011;59402;48.396;-4.472;2023-04-03T16:13:52;10.27;;;2.63;;
41709;SDS011;59402;48.396;-4.472;2023-04-03T16:16:18;12.60;;;2.92;;
41709;SDS011;59402;48.396;-4.472;2023-04-03T16:18:44;9.45;;;2.30;;
41709;SDS011;59402;48.396;-4.472;2023-04-03T16:21:12;9.20;;;2.33;;
41709;SDS011;59402;48.396;-4.472;2023-04-03T16:23:39;8.35;;;2.80;;
41709;SDS011;59402;48.396;-4.472;2023-04-03T16:26:05;9.38;;;2.35;;
41709;SDS011;59402;48.396;-4.472;2023-04-03T16:28:30;10.30;;;2.72;;
41709;SDS011;59402;48.396;-4.472;2023-04-03T16:30:56;10.88;;;2.47;;
41709;SDS011;59402;48.396;-4.472;2023-04-03T16:33:22;13.15;;;2.88;;
41709;SDS011;59402;48.396;-4.472;2023-04-03T16:35:52;14.27;;;2.78;;
41709;SDS011;59402;48.396;-4.472;2023-04-03T16:38:18;10.00;;;2.70;;
41709;SDS011;59402;48.396;-4.472;2023-04-03T16:40:48;12.05;;;2.85;;
41709;SDS011;59402;48.396;-4.472;2023-04-03T16:43:14;11.85;;;2.72;;
41709;SDS011;59402;48.396;-4.472;2023-04-03T16:45:40;8.48;;;2.30;;
41709;SDS011;59402;48.396;-4.472;2023-04-03T16:48:07;11.00;;;2.70;;
41709;SDS011;59402;48.396;-4.472;2023-04-03T16:50:33;8.65;;;2.92;;
41709;SDS011;59402;48.396;-4.472;2023-04-03T16:52:58;11.55;;;2.85;;